createdAt,value
2022-08-05T00:00:05.246Z,43.9320
2022-08-05T00:00:16.581Z,43.7310
2022-08-05T00:00:27.996Z,43.7000
2022-08-05T00:00:47.281Z,43.6940
2022-08-05T00:01:00.989Z,43.8710
2022-08-05T00:01:20.998Z,43.9180
2022-08-05T00:01:30.839Z,43.9060
2022-08-05T00:01:48.462Z,43.8890
2022-08-05T00:02:07.945Z,43.8040
2022-08-05T00:02:17.413Z,43.8510
2022-08-05T00:02:28.638Z,43.7180
2022-08-05T00:02:39.885Z,43.6570
2022-08-05T00:02:55.218Z,43.7980
2022-08-05T00:03:06.435Z,43.6760
2022-08-05T00:03:23.395Z,43.8340
2022-08-05T00:03:36.172Z,43.7790
2022-08-05T00:03:47.975Z,43.6840
2022-08-05T00:03:59.795Z,43.6430
2022-08-05T00:04:10.865Z,43.6050
2022-08-05T00:04:24.932Z,43.7060
2022-08-05T00:04:36.016Z,43.6150
2022-08-05T00:04:47.089Z,43.5660
2022-08-05T00:05:05.868Z,43.7790
2022-08-05T00:06:02.110Z,43.7510
2022-08-05T00:06:04.885Z,43.8830
2022-08-05T00:06:04.960Z,43.8120
2022-08-05T00:06:28.920Z,43.8950
2022-08-05T00:06:32.151Z,43.9010
2022-08-05T00:06:42.064Z,43.9180
2022-08-05T00:06:54.104Z,43.7790
2022-08-05T00:07:26.978Z,43.6510
2022-08-05T00:08:00.136Z,43.9320
2022-08-05T00:08:00.147Z,43.8240
2022-08-05T00:08:00.439Z,43.9010
2022-08-05T00:08:32.571Z,43.9250
2022-08-05T00:08:35.515Z,43.9180
2022-08-05T00:08:47.515Z,43.9070
2022-08-05T00:08:58.818Z,43.7850
2022-08-05T00:09:12.685Z,43.6450
2022-08-05T00:09:24.095Z,43.7390
2022-08-05T00:09:35.163Z,43.6430
2022-08-05T00:09:46.241Z,43.6050
2022-08-05T00:09:57.592Z,43.5700
2022-08-05T00:10:09.814Z,43.6330
2022-08-05T00:10:21.708Z,43.6270
2022-08-05T00:10:38.666Z,43.7880
2022-08-05T00:10:49.732Z,43.6720
2022-08-05T00:11:01.305Z,43.5780
2022-08-05T00:11:20.592Z,43.5840
2022-08-05T00:11:34.640Z,43.7610
2022-08-05T00:11:48.387Z,43.8160
2022-08-05T00:12:01.011Z,43.7820
2022-08-05T00:12:13.295Z,43.6780
2022-08-05T00:12:24.294Z,43.5900
2022-08-05T00:12:35.363Z,43.5230
2022-08-05T00:12:56.396Z,43.7490
2022-08-05T00:13:08.321Z,43.8310
2022-08-05T00:13:38.941Z,43.8310
2022-08-05T00:13:42.242Z,43.8570
2022-08-05T00:13:54.372Z,43.7510
2022-08-05T00:14:12.668Z,43.6430
2022-08-05T00:14:26.514Z,43.7760
2022-08-05T00:14:40.092Z,43.8180
2022-08-05T00:14:51.742Z,43.6720
2022-08-05T00:15:13.980Z,43.6330
2022-08-05T00:15:55.069Z,43.8120
2022-08-05T00:15:58.155Z,43.7670
2022-08-05T00:15:58.181Z,43.8370
2022-08-05T00:16:12.664Z,43.8950
2022-08-05T00:16:35.389Z,43.8040
2022-08-05T00:16:53.410Z,43.8650
2022-08-05T00:16:57.992Z,43.8950
2022-08-05T00:17:19.487Z,43.7370
2022-08-05T00:17:26.007Z,43.8340
2022-08-05T00:17:37.545Z,43.7430
2022-08-05T00:17:48.604Z,43.6150
2022-08-05T00:17:59.685Z,43.5700
2022-08-05T00:18:21.764Z,43.6980
2022-08-05T00:18:30.694Z,43.7940
2022-08-05T00:18:42.202Z,43.6660
2022-08-05T00:18:53.515Z,43.6310
2022-08-05T00:19:04.595Z,43.5940
2022-08-05T00:19:15.675Z,43.5640
2022-08-05T00:19:33.241Z,43.5420
2022-08-05T00:19:45.760Z,43.7550
2022-08-05T00:20:02.678Z,43.8240
2022-08-05T00:20:14.302Z,43.7760
2022-08-05T00:20:31.261Z,43.8120
2022-08-05T00:20:42.332Z,43.6600
2022-08-05T00:20:53.400Z,43.5880
2022-08-05T00:21:04.861Z,43.5820
2022-08-05T00:21:17.654Z,43.6550
2022-08-05T00:21:30.477Z,43.5940
2022-08-05T00:21:42.661Z,43.6720
2022-08-05T00:21:54.179Z,43.6450
2022-08-05T00:22:05.421Z,43.6150
2022-08-05T00:22:17.892Z,43.6450
2022-08-05T00:22:29.200Z,43.6270
2022-08-05T00:22:42.061Z,43.6940
2022-08-05T00:23:02.571Z,43.8220
2022-08-05T00:23:16.014Z,43.9180
2022-08-05T00:23:44.838Z,43.7730
2022-08-05T00:23:46.196Z,43.9010
2022-08-05T00:24:10.508Z,43.9720
2022-08-05T00:24:19.364Z,43.9860
2022-08-05T00:24:34.932Z,43.9990
2022-08-05T00:24:45.995Z,43.8220
2022-08-05T00:25:02.927Z,43.9340
2022-08-05T00:25:19.890Z,43.9780
2022-08-05T00:25:45.364Z,43.8550
2022-08-05T00:25:49.198Z,43.9280
2022-08-05T00:26:06.188Z,43.9720
2022-08-05T00:26:17.266Z,43.7950
2022-08-05T00:26:28.318Z,43.6940
2022-08-05T00:26:50.848Z,43.7610
2022-08-05T00:26:58.596Z,43.8830
2022-08-05T00:27:10.533Z,43.7730
2022-08-05T00:27:35.691Z,43.8580
2022-08-05T00:27:43.807Z,43.9130
2022-08-05T00:27:55.405Z,43.7980
2022-08-05T00:28:06.403Z,43.6820
2022-08-05T00:28:21.143Z,43.6330
2022-08-05T00:28:34.443Z,43.8520
2022-08-05T00:28:46.653Z,43.7980
2022-08-05T00:29:00.405Z,43.8100
2022-08-05T00:29:13.130Z,43.7670
2022-08-05T00:29:25.796Z,43.6820
2022-08-05T00:29:38.169Z,43.7490
2022-08-05T00:29:49.546Z,43.7260
2022-08-05T00:30:03.396Z,43.6940
2022-08-05T00:30:14.848Z,43.8220
2022-08-05T00:30:29.300Z,43.7280
2022-08-05T00:30:44.042Z,43.9280
2022-08-05T00:30:55.490Z,43.9010
2022-08-05T00:31:07.493Z,43.7810
2022-08-05T00:31:52.999Z,43.7850
2022-08-05T00:31:53.085Z,43.9560
2022-08-05T00:32:11.063Z,44.0230
2022-08-05T00:32:12.924Z,44.0450
2022-08-05T00:32:26.774Z,44.0510
2022-08-05T00:32:38.526Z,43.9290
2022-08-05T00:32:51.537Z,43.9110
2022-08-05T00:33:02.617Z,43.8090
2022-08-05T00:33:15.465Z,43.7500
2022-08-05T00:34:53.479Z,44.0510
2022-08-05T00:34:53.754Z,44.0910
2022-08-05T00:34:53.818Z,43.9620
2022-08-05T00:34:54.816Z,44.0940
2022-08-05T00:34:55.990Z,44.1180
2022-08-05T00:35:06.602Z,44.1300
2022-08-05T00:35:12.490Z,44.1340
2022-08-05T00:35:24.256Z,43.9840
2022-08-05T00:35:47.946Z,44.0630
2022-08-05T00:36:16.664Z,44.1000
2022-08-05T00:37:08.861Z,44.0880
2022-08-05T00:37:09.802Z,44.0630
2022-08-05T00:37:11.883Z,44.0830
2022-08-05T00:37:13.245Z,44.0710
2022-08-05T00:37:23.014Z,44.0830
2022-08-05T00:37:50.824Z,43.9310
2022-08-05T00:37:53.954Z,44.0100
2022-08-05T00:38:05.223Z,43.9980
2022-08-05T00:38:28.875Z,43.9940
2022-08-05T00:38:37.593Z,43.9880
2022-08-05T00:38:48.650Z,43.8260
2022-08-05T00:39:00.513Z,43.7440
2022-08-05T00:39:13.970Z,43.6850
2022-08-05T00:39:25.508Z,43.7710
2022-08-05T00:39:37.149Z,43.6670
2022-08-05T00:39:58.641Z,43.8620
2022-08-05T00:40:10.476Z,43.9260
2022-08-05T00:40:28.476Z,43.7500
2022-08-05T00:40:38.501Z,43.8770
2022-08-05T00:40:55.461Z,43.9450
2022-08-05T00:41:06.549Z,43.7750
2022-08-05T00:41:23.497Z,43.8840
2022-08-05T00:41:52.004Z,43.8050
2022-08-05T00:41:55.544Z,43.8890
2022-08-05T00:42:07.102Z,43.8840
2022-08-05T00:42:31.703Z,43.7750
2022-08-05T00:42:37.073Z,43.8600
2022-08-05T00:42:48.227Z,43.7600
2022-08-05T00:43:00.309Z,43.7300
2022-08-05T00:43:11.331Z,43.6710
2022-08-05T00:43:26.507Z,43.8050
2022-08-05T00:43:47.317Z,43.8480
2022-08-05T00:44:00.454Z,43.9030
2022-08-05T00:44:11.546Z,43.7420
2022-08-05T00:44:23.157Z,43.6530
2022-08-05T00:44:34.592Z,43.6650
2022-08-05T00:44:48.618Z,43.7440
2022-08-05T00:45:00.197Z,43.6470
2022-08-05T00:45:11.705Z,43.5920
2022-08-05T00:45:37.917Z,43.6830
2022-08-05T00:45:43.657Z,43.8170
2022-08-05T00:45:55.024Z,43.7970
2022-08-05T00:46:06.207Z,43.6440
2022-08-05T00:46:17.310Z,43.5790
2022-08-05T00:46:36.879Z,43.7610
2022-08-05T00:46:54.290Z,43.8100
2022-08-05T00:47:08.206Z,43.8420
2022-08-05T00:47:23.085Z,43.8030
2022-08-05T00:47:53.283Z,43.6260
2022-08-05T00:47:56.834Z,43.7770
2022-08-05T00:48:08.086Z,43.8440
2022-08-05T00:48:31.237Z,43.7420
2022-08-05T00:48:51.306Z,43.7970
2022-08-05T00:48:54.350Z,43.8500
2022-08-05T00:49:05.400Z,43.7050
2022-08-05T00:49:19.003Z,43.7420
2022-08-05T00:49:32.731Z,43.6440
2022-08-05T00:49:51.401Z,43.8210
2022-08-05T00:50:02.900Z,43.8840
2022-08-05T00:50:14.724Z,43.7140
2022-08-05T00:50:26.359Z,43.6590
2022-08-05T00:50:37.434Z,43.6080
2022-08-05T00:50:48.500Z,43.5890
2022-08-05T00:50:59.752Z,43.5490
2022-08-05T00:51:50.775Z,43.7890
2022-08-05T00:51:51.832Z,43.8780
2022-08-05T00:51:52.325Z,43.9150
2022-08-05T00:52:04.169Z,43.8500
2022-08-05T00:52:15.230Z,43.6650
2022-08-05T00:52:29.071Z,43.7260
2022-08-05T00:52:40.125Z,43.6380
2022-08-05T00:52:51.194Z,43.5960
2022-08-05T00:53:09.816Z,43.6770
2022-08-05T00:53:45.114Z,43.8500
2022-08-05T00:54:01.402Z,43.7970
2022-08-05T00:54:02.432Z,43.8700
2022-08-05T00:54:12.340Z,43.8820
2022-08-05T00:54:23.422Z,43.7100
2022-08-05T00:54:39.272Z,43.8210
2022-08-05T00:54:50.343Z,43.6750
2022-08-05T00:55:02.119Z,43.6560
2022-08-05T00:55:14.834Z,43.6870
2022-08-05T00:55:42.081Z,43.6560
2022-08-05T00:55:43.865Z,43.8640
2022-08-05T00:55:55.224Z,43.8170
2022-08-05T00:56:07.958Z,43.7300
2022-08-05T00:56:22.899Z,43.8150
2022-08-05T00:56:34.957Z,43.9230
2022-08-05T00:56:51.805Z,43.7780
2022-08-05T00:57:02.973Z,43.9310
2022-08-05T00:57:14.034Z,43.8210
2022-08-05T00:57:31.901Z,43.7440
2022-08-05T00:57:55.380Z,43.9150
2022-08-05T00:57:59.415Z,43.9760
2022-08-05T00:58:11.340Z,43.8420
2022-08-05T00:58:27.480Z,43.7870
2022-08-05T00:58:39.767Z,43.9270
2022-08-05T00:58:53.738Z,43.9450
2022-08-05T00:59:06.921Z,43.7750
2022-08-05T00:59:18.385Z,43.8260
2022-08-05T00:59:34.748Z,43.7480
2022-08-05T00:59:46.405Z,43.9420
2022-08-05T00:59:59.026Z,43.9150
2022-08-05T01:00:11.222Z,43.7870
2022-08-05T01:00:25.980Z,43.9090
2022-08-05T01:00:37.491Z,43.8720
2022-08-05T01:00:50.208Z,43.7930
2022-08-05T01:01:01.698Z,43.8700
2022-08-05T01:01:24.667Z,43.9940
2022-08-05T01:01:43.008Z,44.0610
2022-08-05T01:01:52.565Z,44.0940
2022-08-05T01:02:03.654Z,43.9430
2022-08-05T01:02:14.773Z,43.8600
2022-08-05T01:02:27.655Z,43.9210
2022-08-05T01:02:38.765Z,43.8480
2022-08-05T01:02:50.152Z,43.8170
2022-08-05T01:03:01.473Z,43.8300
2022-08-05T01:03:22.798Z,44.0370
2022-08-05T01:03:35.408Z,44.1440
2022-08-05T01:03:46.455Z,43.9980
2022-08-05T01:04:01.312Z,44.1000
2022-08-05T01:04:14.269Z,44.0100
2022-08-05T01:04:29.945Z,44.1120
2022-08-05T01:04:42.135Z,44.1560
2022-08-05T01:04:53.357Z,44.0830
2022-08-05T01:05:05.100Z,43.9900
2022-08-05T01:05:21.493Z,44.1790
2022-08-05T01:05:32.551Z,44.0830
2022-08-05T01:05:45.540Z,44.0940
2022-08-05T01:05:56.600Z,44.0060
2022-08-05T01:06:13.994Z,43.9630
2022-08-05T01:06:32.649Z,44.1830
2022-08-05T01:06:41.553Z,44.2680
2022-08-05T01:06:58.618Z,44.3370
2022-08-05T01:07:13.756Z,44.2290
2022-08-05T01:07:31.655Z,44.3190
2022-08-05T01:08:29.905Z,44.3900
2022-08-05T01:08:41.365Z,44.4240
2022-08-05T01:08:42.801Z,44.4580
2022-08-05T01:08:43.418Z,44.4400
2022-08-05T01:08:50.066Z,44.5190
2022-08-05T01:09:01.274Z,44.3570
2022-08-05T01:09:14.169Z,44.3450
2022-08-05T01:09:25.250Z,44.2460
2022-08-05T01:09:42.206Z,44.4470
2022-08-05T01:09:55.515Z,44.2900
2022-08-05T01:10:09.023Z,44.3030
2022-08-05T01:10:20.381Z,44.2980
2022-08-05T01:10:37.329Z,44.4200
2022-08-05T01:10:52.157Z,44.3190
2022-08-05T01:11:03.889Z,44.4300
2022-08-05T01:11:22.163Z,44.2580
2022-08-05T01:11:36.893Z,44.4630
2022-08-05T01:11:48.953Z,44.5700
2022-08-05T01:12:09.213Z,44.4140
2022-08-05T01:12:17.964Z,44.5660
2022-08-05T01:12:29.992Z,44.4690
2022-08-05T01:12:41.053Z,44.3450
2022-08-05T01:13:12.947Z,44.4690
2022-08-05T01:13:19.376Z,44.5300
2022-08-05T01:13:57.382Z,44.5760
2022-08-05T01:13:58.715Z,44.6000
2022-08-05T01:14:08.964Z,44.6310
2022-08-05T01:14:28.264Z,44.5760
2022-08-05T01:14:37.169Z,44.5760
2022-08-05T01:14:51.451Z,44.5760
2022-08-05T01:15:04.140Z,44.4300
2022-08-05T01:15:18.152Z,44.5150
2022-08-05T01:15:35.523Z,44.6250
2022-08-05T01:15:48.091Z,44.6490
2022-08-05T01:15:59.274Z,44.4870
2022-08-05T01:16:11.111Z,44.4710
2022-08-05T01:16:26.242Z,44.4240
2022-08-05T01:16:37.913Z,44.6140
2022-08-05T01:16:48.974Z,44.4480
2022-08-05T01:17:00.077Z,44.3980
2022-08-05T01:17:13.113Z,44.4790
2022-08-05T01:17:24.461Z,44.4180
2022-08-05T01:17:40.082Z,44.4460
2022-08-05T01:17:53.706Z,44.6370
2022-08-05T01:18:05.274Z,44.6190
2022-08-05T01:18:22.241Z,44.7200
2022-08-05T01:18:34.064Z,44.6470
2022-08-05T01:18:45.135Z,44.5310
2022-08-05T01:18:59.355Z,44.6590
2022-08-05T01:19:14.218Z,44.6710
2022-08-05T01:19:46.092Z,44.7260
2022-08-05T01:20:02.123Z,44.8230
2022-08-05T01:20:03.060Z,44.9220
2022-08-05T01:20:14.822Z,44.9150
2022-08-05T01:20:27.513Z,44.7940
2022-08-05T01:20:38.744Z,44.6930
2022-08-05T01:20:49.782Z,44.6730
2022-08-05T01:21:00.841Z,44.6550
2022-08-05T01:21:12.063Z,44.6330
2022-08-05T01:21:23.226Z,44.6530
2022-08-05T01:21:40.102Z,44.9000
2022-08-05T01:21:51.279Z,44.8070
2022-08-05T01:22:02.342Z,44.6980
2022-08-05T01:22:15.630Z,44.6450
2022-08-05T01:22:30.409Z,44.8660
2022-08-05T01:22:43.099Z,44.8230
2022-08-05T01:22:58.161Z,44.8780
2022-08-05T01:23:14.977Z,44.7440
2022-08-05T01:23:34.760Z,44.9400
2022-08-05T01:23:43.580Z,45.0210
2022-08-05T01:24:00.983Z,45.0770
2022-08-05T01:24:17.499Z,45.0930
2022-08-05T01:24:33.529Z,45.0890
2022-08-05T01:24:44.678Z,44.9080
2022-08-05T01:24:55.710Z,44.8390
2022-08-05T01:25:06.770Z,44.7930
2022-08-05T01:25:17.841Z,44.7780
2022-08-05T01:25:39.746Z,44.8010
2022-08-05T01:25:50.275Z,44.9880
2022-08-05T01:26:03.219Z,45.0950
2022-08-05T01:26:14.305Z,44.9540
2022-08-05T01:26:26.187Z,44.8470
2022-08-05T01:26:37.462Z,44.8530
2022-08-05T01:26:48.530Z,44.8170
2022-08-05T01:26:59.627Z,44.7990
2022-08-05T01:27:17.488Z,44.7950
2022-08-05T01:27:27.753Z,45.0130
2022-08-05T01:27:55.594Z,45.1040
2022-08-05T01:28:01.591Z,45.1080
2022-08-05T01:28:12.649Z,44.9460
2022-08-05T01:28:23.709Z,44.8350
2022-08-05T01:28:35.208Z,44.8270
2022-08-05T01:28:46.296Z,44.8070
2022-08-05T01:28:57.350Z,44.8070
2022-08-05T01:29:14.310Z,45.0590
2022-08-05T01:29:25.379Z,44.9580
2022-08-05T01:29:37.158Z,44.9020
2022-08-05T01:29:48.228Z,44.8900
2022-08-05T01:30:00.071Z,44.9120
2022-08-05T01:30:17.833Z,44.9680
2022-08-05T01:30:34.173Z,45.1440
2022-08-05T01:30:46.598Z,45.2090
2022-08-05T01:31:03.187Z,45.2240
2022-08-05T01:31:14.228Z,45.0960
2022-08-05T01:31:25.298Z,45.0250
2022-08-05T01:31:42.686Z,45.0130
2022-08-05T01:31:53.867Z,45.2730
2022-08-05T01:32:04.947Z,45.1480
2022-08-05T01:32:21.876Z,45.2510
2022-08-05T01:32:32.956Z,45.1200
2022-08-05T01:32:45.366Z,45.0490
2022-08-05T01:32:56.718Z,45.0410
2022-08-05T01:33:08.119Z,44.9760
2022-08-05T01:33:19.866Z,44.9950
2022-08-05T01:33:35.645Z,44.9520
2022-08-05T01:33:48.984Z,45.1660
2022-08-05T01:34:00.399Z,45.1160
2022-08-05T01:34:12.685Z,45.0430
2022-08-05T01:34:26.947Z,45.0490
2022-08-05T01:34:38.387Z,45.0770
2022-08-05T01:34:49.467Z,44.9970
2022-08-05T01:35:01.068Z,44.9730
2022-08-05T01:35:12.265Z,44.9340
2022-08-05T01:35:50.657Z,45.2670
2022-08-05T01:35:52.172Z,45.1760
2022-08-05T01:36:03.158Z,45.3500
2022-08-05T01:36:15.987Z,45.2610
2022-08-05T01:36:28.343Z,45.1560
2022-08-05T01:36:42.074Z,45.1220
2022-08-05T01:36:53.584Z,45.2270
2022-08-05T01:37:04.657Z,45.1360
2022-08-05T01:37:24.605Z,45.1200
2022-08-05T01:37:32.879Z,45.3580
2022-08-05T01:37:47.637Z,45.4580
2022-08-05T01:38:00.223Z,45.3620
2022-08-05T01:38:14.546Z,45.2630
2022-08-05T01:38:30.224Z,45.4690
2022-08-05T01:38:41.416Z,45.4480
2022-08-05T01:38:52.619Z,45.2950
2022-08-05T01:39:03.701Z,45.2610
2022-08-05T01:39:14.775Z,45.2430
2022-08-05T01:39:46.518Z,45.4930
2022-08-05T01:39:48.754Z,45.5950
2022-08-05T01:39:59.845Z,45.4420
2022-08-05T01:40:10.884Z,45.3390
2022-08-05T01:40:21.974Z,45.3310
2022-08-05T01:40:38.934Z,45.5270
2022-08-05T01:40:50.377Z,45.4420
2022-08-05T01:41:02.464Z,45.3920
2022-08-05T01:41:13.525Z,45.3050
2022-08-05T01:41:25.908Z,45.3290
2022-08-05T01:41:37.602Z,45.2970
2022-08-05T01:41:48.958Z,45.2950
2022-08-05T01:42:01.107Z,45.3310
2022-08-05T01:42:12.177Z,45.2790
2022-08-05T01:42:24.875Z,45.3520
2022-08-05T01:42:37.898Z,45.4180
2022-08-05T01:42:51.977Z,45.4810
2022-08-05T01:43:03.605Z,45.3580
2022-08-05T01:43:22.152Z,45.3560
2022-08-05T01:43:31.985Z,45.5490
2022-08-05T01:43:43.038Z,45.4640
2022-08-05T01:43:54.077Z,45.3720
2022-08-05T01:44:05.705Z,45.3960
2022-08-05T01:44:21.348Z,45.5930
2022-08-05T01:44:35.886Z,45.6070
2022-08-05T01:44:54.383Z,45.4790
2022-08-05T01:45:04.017Z,45.6390
2022-08-05T01:45:19.306Z,45.6940
2022-08-05T01:45:35.016Z,45.5650
2022-08-05T01:45:48.177Z,45.6620
2022-08-05T01:46:07.324Z,45.7420
2022-08-05T01:46:42.313Z,45.7480
2022-08-05T01:46:42.767Z,45.7460
2022-08-05T01:46:56.029Z,45.7360
2022-08-05T01:47:07.114Z,45.5710
2022-08-05T01:47:21.214Z,45.6010
2022-08-05T01:47:39.002Z,45.5330
2022-08-05T01:47:49.767Z,45.6880
2022-08-05T01:48:10.437Z,45.7560
2022-08-05T01:48:21.568Z,45.7520
2022-08-05T01:48:33.766Z,45.5990
2022-08-05T01:48:44.830Z,45.4850
2022-08-05T01:49:00.807Z,45.6620
2022-08-05T01:49:24.046Z,45.6940
2022-08-05T01:50:00.421Z,45.7420
2022-08-05T01:50:01.390Z,45.7620
2022-08-05T01:50:08.685Z,45.7760
2022-08-05T01:50:28.859Z,45.7760
2022-08-05T01:50:41.139Z,45.7820
2022-08-05T01:50:58.061Z,45.7900
2022-08-05T01:51:15.032Z,45.8420
2022-08-05T01:51:26.103Z,45.6890
2022-08-05T01:51:41.312Z,45.7630
2022-08-05T01:51:58.757Z,45.8180
2022-08-05T01:52:12.434Z,45.7020
2022-08-05T01:52:27.081Z,45.7760
2022-08-05T01:52:38.151Z,45.6350
2022-08-05T01:52:50.010Z,45.5470
2022-08-05T01:53:01.311Z,45.5590
2022-08-05T01:53:13.526Z,45.5330
2022-08-05T01:53:57.500Z,45.7360
2022-08-05T01:53:57.643Z,45.5590
2022-08-05T01:53:59.118Z,45.8100
2022-08-05T01:54:13.428Z,45.8140
2022-08-05T01:54:29.032Z,45.8250
2022-08-05T01:54:46.163Z,45.6600
2022-08-05T01:54:57.069Z,45.8250
2022-08-05T01:55:08.797Z,45.7630
2022-08-05T01:55:19.869Z,45.6480
2022-08-05T01:55:31.759Z,45.6540
2022-08-05T01:55:47.203Z,45.8080
2022-08-05T01:55:58.269Z,45.6410
2022-08-05T01:56:09.360Z,45.6010
2022-08-05T01:58:10.465Z,45.8650
2022-08-05T01:58:10.466Z,45.9090
2022-08-05T01:58:10.467Z,45.7860
2022-08-05T01:58:11.648Z,45.9250
2022-08-05T01:58:12.460Z,45.9600
2022-08-05T01:58:14.710Z,45.5650
2022-08-05T01:58:29.164Z,45.8770
2022-08-05T01:58:40.453Z,45.9600
2022-08-05T01:58:44.965Z,45.9780
2022-08-05T01:58:53.123Z,45.9900
2022-08-05T01:59:04.191Z,45.8120
2022-08-05T01:59:15.718Z,45.7280
2022-08-05T01:59:26.783Z,45.6560
2022-08-05T01:59:38.545Z,45.6680
2022-08-05T01:59:49.597Z,45.6380
2022-08-05T02:00:00.680Z,45.6210
2022-08-05T02:00:12.402Z,45.6140
2022-08-05T02:00:29.943Z,45.6500
2022-08-05T02:00:40.747Z,45.8530
2022-08-05T02:00:52.677Z,45.7800
2022-08-05T02:01:03.747Z,45.6880
2022-08-05T02:01:14.928Z,45.6740
2022-08-05T02:01:31.914Z,45.9030
2022-08-05T02:01:48.852Z,45.9910
2022-08-05T02:02:00.094Z,45.8740
2022-08-05T02:02:11.467Z,45.7820
2022-08-05T02:02:26.272Z,45.7760
2022-08-05T02:02:41.187Z,45.9670
2022-08-05T02:02:56.754Z,46.0630
2022-08-05T02:03:07.803Z,45.9160
2022-08-05T02:03:31.303Z,46.0270
2022-08-05T02:03:41.715Z,46.1010
2022-08-05T02:03:54.482Z,45.9900
2022-08-05T02:04:08.741Z,45.9840
2022-08-05T02:04:21.542Z,45.9360
2022-08-05T02:04:32.612Z,45.8020
2022-08-05T02:04:46.246Z,45.8200
2022-08-05T02:05:01.546Z,46.0100
2022-08-05T02:05:14.244Z,45.9900
2022-08-05T02:05:28.579Z,45.9280
2022-08-05T02:05:39.856Z,45.9720
2022-08-05T02:05:57.907Z,46.0210
2022-08-05T02:06:23.918Z,46.1350
2022-08-05T02:06:37.777Z,46.2030
2022-08-05T02:06:45.035Z,46.2130
2022-08-05T02:06:56.289Z,46.0790
2022-08-05T02:07:09.079Z,46.0490
2022-08-05T02:07:21.967Z,46.0000
2022-08-05T02:07:34.049Z,45.9720
2022-08-05T02:07:57.822Z,45.8800
2022-08-05T02:08:02.530Z,46.0630
2022-08-05T02:08:13.834Z,45.9490
2022-08-05T02:08:31.602Z,46.0900
2022-08-05T02:08:54.897Z,45.9990
2022-08-05T02:08:59.755Z,46.1020
2022-08-05T02:09:11.753Z,46.0100
2022-08-05T02:09:28.141Z,46.0840
2022-08-05T02:09:39.458Z,45.9250
2022-08-05T02:09:51.295Z,45.8830
2022-08-05T02:10:02.368Z,45.8230
2022-08-05T02:10:17.277Z,45.8290
2022-08-05T02:10:28.898Z,46.0320
2022-08-05T02:10:39.914Z,45.9110
2022-08-05T02:10:52.401Z,45.9550
2022-08-05T02:11:04.586Z,45.9610
2022-08-05T02:11:15.659Z,45.9170
2022-08-05T02:11:32.851Z,46.1260
2022-08-05T02:11:48.113Z,46.0450
2022-08-05T02:12:02.191Z,46.1450
2022-08-05T02:12:13.239Z,45.9910
2022-08-05T02:12:25.346Z,45.8990
2022-08-05T02:12:36.736Z,45.9650
2022-08-05T02:12:51.061Z,45.9030
2022-08-05T02:13:02.335Z,46.0510
2022-08-05T02:13:16.859Z,46.0440
2022-08-05T02:13:28.554Z,45.9830
2022-08-05T02:13:53.800Z,46.1420
2022-08-05T02:14:02.455Z,46.2140
2022-08-05T02:14:14.659Z,46.1080
2022-08-05T02:14:28.095Z,46.0810
2022-08-05T02:14:39.145Z,45.9770
2022-08-05T02:14:54.316Z,46.1180
2022-08-05T02:15:06.825Z,46.0290
2022-08-05T02:15:23.786Z,46.1700
2022-08-05T02:15:34.964Z,46.0660
2022-08-05T02:15:46.035Z,46.0130
2022-08-05T02:15:58.015Z,46.0320
2022-08-05T02:16:09.085Z,46.0190
2022-08-05T02:16:26.046Z,46.2420
2022-08-05T02:16:38.975Z,46.2490
2022-08-05T02:16:52.152Z,46.1570
2022-08-05T02:17:04.256Z,46.2140
2022-08-05T02:17:29.896Z,46.1340
2022-08-05T02:18:27.730Z,46.4220
2022-08-05T02:18:28.846Z,46.4400
2022-08-05T02:18:31.515Z,46.4740
2022-08-05T02:18:31.560Z,46.3240
2022-08-05T02:18:41.965Z,46.4920
2022-08-05T02:18:53.376Z,46.3960
2022-08-05T02:19:07.181Z,46.2550
2022-08-05T02:19:18.668Z,46.3610
2022-08-05T02:19:34.425Z,46.2000
2022-08-05T02:19:47.201Z,46.3860
2022-08-05T02:19:58.849Z,46.3180
2022-08-05T02:20:11.533Z,46.2880
2022-08-05T02:20:22.614Z,46.2260
2022-08-05T02:20:33.676Z,46.2320
2022-08-05T02:20:50.654Z,46.4890
2022-08-05T02:21:01.724Z,46.3850
2022-08-05T02:21:14.851Z,46.3170
2022-08-05T02:21:27.642Z,46.4340
2022-08-05T02:21:43.446Z,46.5480
2022-08-05T02:21:58.432Z,46.6340
2022-08-05T02:22:09.953Z,46.5300
2022-08-05T02:22:27.366Z,46.6900
2022-08-05T02:22:38.578Z,46.5910
2022-08-05T02:22:49.678Z,46.5170
2022-08-05T02:23:00.864Z,46.4680
2022-08-05T02:23:12.575Z,46.4800
2022-08-05T02:23:25.902Z,46.5980
2022-08-05T02:23:38.703Z,46.6220
2022-08-05T02:23:50.214Z,46.5480
2022-08-05T02:24:01.434Z,46.5200
2022-08-05T02:24:13.182Z,46.5320
2022-08-05T02:24:30.271Z,46.7420
2022-08-05T02:24:42.687Z,46.7020
2022-08-05T02:24:53.766Z,46.5910
2022-08-05T02:25:04.827Z,46.5700
2022-08-05T02:25:15.887Z,46.5880
2022-08-05T02:25:26.947Z,46.6000
2022-08-05T02:25:49.161Z,46.8560
2022-08-05T02:26:00.916Z,46.9710
2022-08-05T02:26:12.928Z,46.8680
2022-08-05T02:26:24.004Z,46.7540
2022-08-05T02:26:37.848Z,46.8160
2022-08-05T02:26:54.890Z,46.8660
2022-08-05T02:27:10.088Z,46.9000
2022-08-05T02:27:30.261Z,46.9970
2022-08-05T02:27:58.241Z,47.0210
2022-08-05T02:27:58.586Z,47.0850
2022-08-05T02:28:11.604Z,47.1350
2022-08-05T02:28:28.299Z,46.9340
2022-08-05T02:28:41.524Z,47.1010
2022-08-05T02:28:52.891Z,47.0890
2022-08-05T02:29:04.107Z,46.9580
2022-08-05T02:29:21.632Z,46.9370
2022-08-05T02:29:58.110Z,47.2190
2022-08-05T02:29:58.668Z,47.1730
2022-08-05T02:30:06.036Z,47.2650
2022-08-05T02:30:18.001Z,47.1290
2022-08-05T02:30:29.935Z,46.9840
2022-08-05T02:30:51.645Z,47.0190
2022-08-05T02:30:58.008Z,47.1910
2022-08-05T02:31:14.648Z,47.1290
2022-08-05T02:31:26.282Z,47.2150
2022-08-05T02:31:39.460Z,47.1730
2022-08-05T02:31:50.529Z,47.0510
2022-08-05T02:32:04.615Z,46.9970
2022-08-05T02:32:23.714Z,47.1870
2022-08-05T02:32:33.206Z,47.3090
2022-08-05T02:32:45.417Z,47.2310
2022-08-05T02:32:56.861Z,47.0890
2022-08-05T02:33:08.965Z,47.1290
2022-08-05T02:33:24.519Z,47.1850
2022-08-05T02:33:39.305Z,47.3220
2022-08-05T02:33:57.473Z,47.2210
2022-08-05T02:34:09.339Z,47.3270
2022-08-05T02:34:21.405Z,47.2810
2022-08-05T02:34:33.867Z,47.2090
2022-08-05T02:34:45.406Z,47.1390
2022-08-05T02:35:13.563Z,47.2770
2022-08-05T02:35:19.299Z,47.3430
2022-08-05T02:35:38.569Z,47.3740
2022-08-05T02:35:57.515Z,47.3680
2022-08-05T02:36:10.175Z,47.4020
2022-08-05T02:36:24.944Z,47.3640
2022-08-05T02:36:38.695Z,47.2770
2022-08-05T02:36:49.765Z,47.1070
2022-08-05T02:37:00.951Z,47.0530
2022-08-05T02:37:15.806Z,47.1870
2022-08-05T02:37:28.424Z,47.1450
2022-08-05T02:37:43.116Z,47.2250
2022-08-05T02:38:00.401Z,47.3050
2022-08-05T02:38:19.301Z,47.2930
2022-08-05T02:38:35.166Z,47.3330
2022-08-05T02:38:53.230Z,47.4140
2022-08-05T02:39:04.575Z,47.4300
2022-08-05T02:39:21.385Z,47.4060
2022-08-05T02:39:32.942Z,47.2770
2022-08-05T02:39:47.639Z,47.1670
2022-08-05T02:40:01.029Z,47.3560
2022-08-05T02:40:12.089Z,47.2410
2022-08-05T02:40:24.223Z,47.1630
2022-08-05T02:40:36.939Z,47.2550
2022-08-05T02:40:48.025Z,47.1630
2022-08-05T02:40:59.099Z,47.1270
2022-08-05T02:41:17.887Z,47.3370
2022-08-05T02:41:43.274Z,47.3370
2022-08-05T02:42:00.525Z,47.4260
2022-08-05T02:42:03.190Z,47.4580
2022-08-05T02:42:22.550Z,47.3030
2022-08-05T02:42:35.993Z,47.4200
2022-08-05T02:42:53.030Z,47.4640
2022-08-05T02:43:05.236Z,47.4580
2022-08-05T02:43:18.549Z,47.4020
2022-08-05T02:43:29.612Z,47.2310
2022-08-05T02:44:02.290Z,47.3860
2022-08-05T02:44:06.713Z,47.1870
2022-08-05T02:44:14.611Z,47.4660
2022-08-05T02:44:27.692Z,47.4020
2022-08-05T02:44:38.760Z,47.2350
2022-08-05T02:44:50.189Z,47.1870
2022-08-05T02:45:02.910Z,47.2490
2022-08-05T02:45:13.981Z,47.1570
2022-08-05T02:45:27.231Z,47.2690
2022-08-05T02:45:52.912Z,47.2430
2022-08-05T02:45:56.652Z,47.3980
2022-08-05T02:46:12.004Z,47.4640
2022-08-05T02:46:27.777Z,47.5040
2022-08-05T02:46:53.428Z,47.3920
2022-08-05T02:46:59.854Z,47.5000
2022-08-05T02:47:11.853Z,47.5140